sensor_id;sensor_type;location;lat;lon;timestamp;temperature;humidity
12164;DHT22;6145;50.192;10.064;2023-11-21T12:08:43;10.90;99.90
12164;DHT22;6145;50.192;10.064;2023-11-21T12:11:21;11.10;99.90
12164;DHT22;6145;50.192;10.064;2023-11-21T12:13:57;11.90;99.90
12164;DHT22;6145;50.192;10.064;2023-11-21T12:16:32;11.00;99.90
12164;DHT22;6145;50.192;10.064;2023-11-21T12:18:59;11.10;99.90
12164;DHT22;6145;50.192;10.064;2023-11-21T12:21:27;11.10;99.90
12164;DHT22;6145;50.192;10.064;2023-11-21T12:23:55;11.20;99.90
12164;DHT22;6145;50.192;10.064;2023-11-21T12:26:24;12.00;99.90
12164;DHT22;6145;50.192;10.064;2023-11-21T12:28:52;11.30;99.90
12164;DHT22;6145;50.192;10.064;2023-11-21T12:31:21;11.30;99.90
12164;DHT22;6145;50.192;10.064;2023-11-21T12:33:48;11.30;99.90
12164;DHT22;6145;50.192;10.064;2023-11-21T12:36:15;11.40;99.90
12164;DHT22;6145;50.192;10.064;2023-11-21T12:38:42;11.40;99.90
12164;DHT22;6145;50.192;10.064;2023-11-21T12:41:14;11.40;99.90
12164;DHT22;6145;50.192;10.064;2023-11-21T16:05:49;10.40;99.90
12164;DHT22;6145;50.192;10.064;2023-11-21T16:08:17;10.40;99.90
12164;DHT22;6145;50.192;10.064;2023-11-21T16:10:44;10.40;99.90
12164;DHT22;6145;50.192;10.064;2023-11-21T16:13:11;10.40;99.90
12164;DHT22;6145;50.192;10.064;2023-11-21T16:15:38;10.70;99.90
12164;DHT22;6145;50.192;10.064;2023-11-21T16:18:05;10.40;99.90
12164;DHT22;6145;50.192;10.064;2023-11-21T16:20:33;10.40;99.90
12164;DHT22;6145;50.192;10.064;2023-11-21T16:23:01;10.30;99.90
12164;DHT22;6145;50.192;10.064;2023-11-21T16:25:28;10.30;99.90
12164;DHT22;6145;50.192;10.064;2023-11-21T16:27:55;10.20;99.90
12164;DHT22;6145;50.192;10.064;2023-11-21T16:30:24;11.40;99.90
12164;DHT22;6145;50.192;10.064;2023-11-21T16:32:52;10.30;99.90
12164;DHT22;6145;50.192;10.064;2023-11-21T16:35:20;10.30;99.90
12164;DHT22;6145;50.192;10.064;2023-11-21T16:37:46;10.60;99.90
12164;DHT22;6145;50.192;10.064;2023-11-21T16:40:15;10.20;99.90
12164;DHT22;6145;50.192;10.064;2023-11-21T16:42:44;10.20;99.90
12164;DHT22;6145;50.192;10.064;2023-11-21T16:45:11;10.20;99.90
12164;DHT22;6145;50.192;10.064;2023-11-21T16:47:38;10.20;99.90
12164;DHT22;6145;50.192;10.064;2023-11-21T16:50:06;10.60;99.90
12164;DHT22;6145;50.192;10.064;2023-11-21T16:52:33;10.20;99.90
12164;DHT22;6145;50.192;10.064;2023-11-21T16:55:00;10.90;99.90
12164;DHT22;6145;50.192;10.064;2023-11-21T16:57:28;10.10;99.90
12164;DHT22;6145;50.192;10.064;2023-11-21T16:59:55;11.10;99.90
12164;DHT22;6145;50.192;10.064;2023-11-21T17:02:22;10.10;99.90
12164;DHT22;6145;50.192;10.064;2023-11-21T17:04:49;10.10;99.90
12164;DHT22;6145;50.192;10.064;2023-11-21T17:07:16;11.20;99.90
12164;DHT22;6145;50.192;10.064;2023-11-21T17:09:45;10.90;99.90
12164;DHT22;6145;50.192;10.064;2023-11-21T17:12:12;10.00;99.90
12164;DHT22;6145;50.192;10.064;2023-11-21T17:14:42;10.00;99.90
12164;DHT22;6145;50.192;10.064;2023-11-21T17:17:10;10.00;99.90
12164;DHT22;6145;50.192;10.064;2023-11-21T17:19:38;10.00;99.90
12164;DHT22;6145;50.192;10.064;2023-11-21T17:22:06;10.00;99.90
12164;DHT22;6145;50.192;10.064;2023-11-21T17:24:33;10.00;99.90
12164;DHT22;6145;50.192;10.064;2023-11-21T17:27:02;10.20;99.90
12164;DHT22;6145;50.192;10.064;2023-11-21T17:29:28;10.00;99.90
12164;DHT22;6145;50.192;10.064;2023-11-21T17:31:57;10.00;99.90
12164;DHT22;6145;50.192;10.064;2023-11-21T17:34:23;10.80;99.90
12164;DHT22;6145;50.192;10.064;2023-11-21T17:36:50;9.90;99.90
12164;DHT22;6145;50.192;10.064;2023-11-21T17:39:17;9.90;99.90
12164;DHT22;6145;50.192;10.064;2023-11-21T17:41:44;9.90;99.90
12164;DHT22;6145;50.192;10.064;2023-11-21T17:44:11;9.90;99.90
12164;DHT22;6145;50.192;10.064;2023-11-21T17:46:38;9.90;99.90
12164;DHT22;6145;50.192;10.064;2023-11-21T17:49:06;9.90;99.90
12164;DHT22;6145;50.192;10.064;2023-11-21T17:51:37;9.70;99.90
12164;DHT22;6145;50.192;10.064;2023-11-21T17:54:05;9.70;99.90
12164;DHT22;6145;50.192;10.064;2023-11-21T17:56:32;9.60;99.90
12164;DHT22;6145;50.192;10.064;2023-11-21T17:58:59;9.60;99.90
12164;DHT22;6145;50.192;10.064;2023-11-21T18:01:25;9.50;99.90
12164;DHT22;6145;50.192;10.064;2023-11-21T18:03:58;9.40;99.90
12164;DHT22;6145;50.192;10.064;2023-11-21T18:06:27;9.80;99.90
12164;DHT22;6145;50.192;10.064;2023-11-21T18:08:53;9.40;99.90
12164;DHT22;6145;50.192;10.064;2023-11-21T18:11:20;9.40;99.90
12164;DHT22;6145;50.192;10.064;2023-11-21T18:13:47;9.60;99.90
12164;DHT22;6145;50.192;10.064;2023-11-21T18:16:14;9.30;99.90
12164;DHT22;6145;50.192;10.064;2023-11-21T18:18:41;9.30;99.90
12164;DHT22;6145;50.192;10.064;2023-11-21T18:21:08;9.20;99.90
12164;DHT22;6145;50.192;10.064;2023-11-21T18:23:36;9.70;99.90
12164;DHT22;6145;50.192;10.064;2023-11-21T18:26:03;9.10;99.90
12164;DHT22;6145;50.192;10.064;2023-11-21T18:28:30;9.00;99.90
12164;DHT22;6145;50.192;10.064;2023-11-21T18:30:57;8.90;99.90
12164;DHT22;6145;50.192;10.064;2023-11-21T18:33:24;9.00;99.60
12164;DHT22;6145;50.192;10.064;2023-11-21T18:35:51;8.90;99.80
12164;DHT22;6145;50.192;10.064;2023-11-21T18:38:18;10.20;99.90
12164;DHT22;6145;50.192;10.064;2023-11-21T18:40:46;8.80;99.70
12164;DHT22;6145;50.192;10.064;2023-11-21T18:43:13;8.80;99.70
12164;DHT22;6145;50.192;10.064;2023-11-21T18:45:39;8.80;99.50
12164;DHT22;6145;50.192;10.064;2023-11-21T18:48:08;8.70;99.10
12164;DHT22;6145;50.192;10.064;2023-11-21T18:50:36;8.90;99.30
12164;DHT22;6145;50.192;10.064;2023-11-21T18:53:03;9.60;99.40
12164;DHT22;6145;50.192;10.064;2023-11-21T18:55:30;8.50;99.20
12164;DHT22;6145;50.192;10.064;2023-11-21T18:57:58;8.50;99.10
12164;DHT22;6145;50.192;10.064;2023-11-21T19:00:25;8.50;99.00
12164;DHT22;6145;50.192;10.064;2023-11-21T19:02:52;8.50;98.90
12164;DHT22;6145;50.192;10.064;2023-11-21T19:05:19;8.50;99.10
12164;DHT22;6145;50.192;10.064;2023-11-21T19:07:46;8.50;99.30
12164;DHT22;6145;50.192;10.064;2023-11-21T19:10:13;8.40;99.00
12164;DHT22;6145;50.192;10.064;2023-11-21T19:12:39;8.40;99.00
12164;DHT22;6145;50.192;10.064;2023-11-21T19:15:08;8.40;99.10
12164;DHT22;6145;50.192;10.064;2023-11-21T19:17:35;8.40;99.30
12164;DHT22;6145;50.192;10.064;2023-11-21T19:20:04;8.40;99.10
12164;DHT22;6145;50.192;10.064;2023-11-21T19:22:31;8.30;99.10
12164;DHT22;6145;50.192;10.064;2023-11-21T19:24:59;8.30;99.00
12164;DHT22;6145;50.192;10.064;2023-11-21T19:27:26;8.30;99.00
12164;DHT22;6145;50.192;10.064;2023-11-21T19:29:53;9.00;99.30
12164;DHT22;6145;50.192;10.064;2023-11-21T19:32:21;8.20;98.80
12164;DHT22;6145;50.192;10.064;2023-11-21T19:34:48;8.30;98.60
12164;DHT22;6145;50.192;10.064;2023-11-21T19:37:15;8.20;98.60
12164;DHT22;6145;50.192;10.064;2023-11-21T19:39:42;8.20;98.50
12164;DHT22;6145;50.192;10.064;2023-11-21T19:42:09;8.10;98.30
12164;DHT22;6145;50.192;10.064;2023-11-21T19:44:36;8.10;98.30
12164;DHT22;6145;50.192;10.064;2023-11-21T19:47:04;8.40;98.40
12164;DHT22;6145;50.192;10.064;2023-11-21T19:49:32;8.00;98.10
12164;DHT22;6145;50.192;10.064;2023-11-21T19:51:59;9.10;98.00
12164;DHT22;6145;50.192;10.064;2023-11-21T19:54:27;8.90;98.10
12164;DHT22;6145;50.192;10.064;2023-11-21T19:56:54;7.90;97.80
12164;DHT22;6145;50.192;10.064;2023-11-21T19:59:21;7.90;97.80
12164;DHT22;6145;50.192;10.064;2023-11-21T20:01:49;7.80;97.50
12164;DHT22;6145;50.192;10.064;2023-11-21T20:04:17;9.20;98.10
12164;DHT22;6145;50.192;10.064;2023-11-21T20:06:45;7.90;97.60
12164;DHT22;6145;50.192;10.064;2023-11-21T20:09:14;8.80;98.00
12164;DHT22;6145;50.192;10.064;2023-11-21T20:11:41;7.80;97.70
12164;DHT22;6145;50.192;10.064;2023-11-21T20:14:11;7.70;97.80
12164;DHT22;6145;50.192;10.064;2023-11-21T20:16:39;7.70;97.60
12164;DHT22;6145;50.192;10.064;2023-11-21T20:19:06;7.60;97.70
12164;DHT22;6145;50.192;10.064;2023-11-21T20:21:33;10.00;98.30
12164;DHT22;6145;50.192;10.064;2023-11-21T20:24:02;7.70;97.60
12164;DHT22;6145;50.192;10.064;2023-11-21T20:26:29;7.60;97.60
12164;DHT22;6145;50.192;10.064;2023-11-21T20:28:57;8.20;97.90
12164;DHT22;6145;50.192;10.064;2023-11-21T20:31:23;7.80;97.60
12164;DHT22;6145;50.192;10.064;2023-11-21T20:33:52;7.60;97.40
12164;DHT22;6145;50.192;10.064;2023-11-21T20:37:00;7.50;97.10
12164;DHT22;6145;50.192;10.064;2023-11-21T20:39:29;7.60;97.30
12164;DHT22;6145;50.192;10.064;2023-11-21T20:41:56;8.00;97.40
12164;DHT22;6145;50.192;10.064;2023-11-21T20:44:23;7.60;97.20
12164;DHT22;6145;50.192;10.064;2023-11-21T20:46:50;7.50;96.80
12164;DHT22;6145;50.192;10.064;2023-11-21T20:49:19;7.40;96.70
12164;DHT22;6145;50.192;10.064;2023-11-21T20:51:45;7.30;96.80
12164;DHT22;6145;50.192;10.064;2023-11-21T20:54:12;7.40;96.60
12164;DHT22;6145;50.192;10.064;2023-11-21T20:56:41;7.50;96.40
12164;DHT22;6145;50.192;10.064;2023-11-21T20:59:09;7.40;96.40
12164;DHT22;6145;50.192;10.064;2023-11-21T21:01:37;7.30;96.30
12164;DHT22;6145;50.192;10.064;2023-11-21T21:04:04;7.20;96.20
12164;DHT22;6145;50.192;10.064;2023-11-21T21:06:32;7.20;96.20
12164;DHT22;6145;50.192;10.064;2023-11-21T21:08:59;7.20;96.30
12164;DHT22;6145;50.192;10.064;2023-11-21T21:11:27;7.30;96.20
12164;DHT22;6145;50.192;10.064;2023-11-21T21:13:58;7.10;96.10
12164;DHT22;6145;50.192;10.064;2023-11-21T21:16:25;7.10;96.30
12164;DHT22;6145;50.192;10.064;2023-11-21T21:18:52;7.10;96.10
12164;DHT22;6145;50.192;10.064;2023-11-21T21:21:20;7.00;96.00
12164;DHT22;6145;50.192;10.064;2023-11-21T21:23:48;7.10;96.20
12164;DHT22;6145;50.192;10.064;2023-11-21T21:26:16;7.00;96.10
12164;DHT22;6145;50.192;10.064;2023-11-21T21:28:43;7.00;96.20
12164;DHT22;6145;50.192;10.064;2023-11-21T21:31:13;7.00;96.10
12164;DHT22;6145;50.192;10.064;2023-11-21T21:33:40;7.00;96.20
12164;DHT22;6145;50.192;10.064;2023-11-21T21:36:09;7.80;96.60
12164;DHT22;6145;50.192;10.064;2023-11-21T21:38:36;7.00;96.00
12164;DHT22;6145;50.192;10.064;2023-11-21T21:41:06;6.90;96.00
12164;DHT22;6145;50.192;10.064;2023-11-21T21:43:33;7.00;96.20
12164;DHT22;6145;50.192;10.064;2023-11-21T21:46:00;6.90;96.00
12164;DHT22;6145;50.192;10.064;2023-11-21T21:48:34;7.20;96.10
12164;DHT22;6145;50.192;10.064;2023-11-21T21:51:01;6.90;96.00
12164;DHT22;6145;50.192;10.064;2023-11-21T21:53:28;6.90;96.00
12164;DHT22;6145;50.192;10.064;2023-11-21T21:55:54;7.10;96.00
12164;DHT22;6145;50.192;10.064;2023-11-21T21:58:22;7.20;95.90
12164;DHT22;6145;50.192;10.064;2023-11-21T22:00:49;6.80;95.90
12164;DHT22;6145;50.192;10.064;2023-11-21T22:03:15;6.80;95.90
12164;DHT22;6145;50.192;10.064;2023-11-21T22:05:44;7.40;96.20
12164;DHT22;6145;50.192;10.064;2023-11-21T22:08:10;6.90;96.00
12164;DHT22;6145;50.192;10.064;2023-11-21T22:10:38;7.70;96.30
12164;DHT22;6145;50.192;10.064;2023-11-21T22:13:05;6.80;95.70
12164;DHT22;6145;50.192;10.064;2023-11-21T22:15:31;6.70;95.80
12164;DHT22;6145;50.192;10.064;2023-11-21T22:17:58;6.70;96.10
12164;DHT22;6145;50.192;10.064;2023-11-21T22:20:25;6.80;95.80
12164;DHT22;6145;50.192;10.064;2023-11-21T22:22:53;6.70;95.80
12164;DHT22;6145;50.192;10.064;2023-11-21T22:25:20;6.70;95.80
12164;DHT22;6145;50.192;10.064;2023-11-21T22:27:48;6.70;95.80
12164;DHT22;6145;50.192;10.064;2023-11-21T22:30:16;6.70;95.80
12164;DHT22;6145;50.192;10.064;2023-11-21T22:32:43;6.70;95.90
12164;DHT22;6145;50.192;10.064;2023-11-21T22:35:11;6.70;95.90
12164;DHT22;6145;50.192;10.064;2023-11-21T22:37:37;6.70;96.00
12164;DHT22;6145;50.192;10.064;2023-11-21T22:40:07;6.70;96.20
12164;DHT22;6145;50.192;10.064;2023-11-21T22:42:35;6.70;96.10
12164;DHT22;6145;50.192;10.064;2023-11-21T22:45:04;6.70;96.10
12164;DHT22;6145;50.192;10.064;2023-11-21T22:47:32;6.60;96.10
12164;DHT22;6145;50.192;10.064;2023-11-21T22:49:59;6.70;96.20
12164;DHT22;6145;50.192;10.064;2023-11-21T22:52:26;6.70;96.10
12164;DHT22;6145;50.192;10.064;2023-11-21T22:54:52;7.10;96.30
12164;DHT22;6145;50.192;10.064;2023-11-21T22:57:20;6.60;96.20
12164;DHT22;6145;50.192;10.064;2023-11-21T22:59:47;6.60;96.30
12164;DHT22;6145;50.192;10.064;2023-11-21T23:02:15;6.60;96.30
12164;DHT22;6145;50.192;10.064;2023-11-21T23:04:43;6.60;96.40
12164;DHT22;6145;50.192;10.064;2023-11-21T23:07:10;6.60;96.30
12164;DHT22;6145;50.192;10.064;2023-11-21T23:09:37;7.60;96.70
12164;DHT22;6145;50.192;10.064;2023-11-21T23:12:05;6.50;96.30
12164;DHT22;6145;50.192;10.064;2023-11-21T23:14:36;6.50;96.20
12164;DHT22;6145;50.192;10.064;2023-11-21T23:17:03;6.50;96.20
12164;DHT22;6145;50.192;10.064;2023-11-21T23:19:34;6.40;96.20
12164;DHT22;6145;50.192;10.064;2023-11-21T23:22:06;6.40;96.20
12164;DHT22;6145;50.192;10.064;2023-11-21T23:24:34;6.00;95.90
12164;DHT22;6145;50.192;10.064;2023-11-21T23:27:01;6.40;96.20
12164;DHT22;6145;50.192;10.064;2023-11-21T23:29:30;6.00;96.00
12164;DHT22;6145;50.192;10.064;2023-11-21T23:31:59;6.90;96.30
12164;DHT22;6145;50.192;10.064;2023-11-21T23:34:26;6.60;96.30
12164;DHT22;6145;50.192;10.064;2023-11-21T23:36:53;6.40;96.10
12164;DHT22;6145;50.192;10.064;2023-11-21T23:39:20;6.40;96.10
12164;DHT22;6145;50.192;10.064;2023-11-21T23:41:47;6.60;96.20
12164;DHT22;6145;50.192;10.064;2023-11-21T23:44:15;4.90;95.40
12164;DHT22;6145;50.192;10.064;2023-11-21T23:46:42;6.30;96.00
12164;DHT22;6145;50.192;10.064;2023-11-21T23:49:16;6.30;96.00
12164;DHT22;6145;50.192;10.064;2023-11-21T23:51:44;6.30;95.90
12164;DHT22;6145;50.192;10.064;2023-11-21T23:54:36;6.20;96.10
12164;DHT22;6145;50.192;10.064;2023-11-21T23:57:04;6.20;95.90
12164;DHT22;6145;50.192;10.064;2023-11-21T23:59:31;6.20;96.00
